Time;durP1;ratioP1;P1;durP2;ratioP2;P2;SDS_P1;SDS_P2;PMS_P1;PMS_P2;Temp;Humidity;BMP_temperature;BMP_pressure;BME280_temperature;BME280_humidity;BME280_pressure;Samples;Min_cycle;Max_cycle;Signal;HPM_P1;HPM_P2
2023/06/27 00:02:00;;;;;;;7.70;1.85;;;17.50;90.30;;;;;;5053099;28;20114;-50
2023/06/27 00:04:28;;;;;;;7.55;2.00;;;17.50;90.80;;;;;;5052906;28;20158;-49
2023/06/27 00:06:54;;;;;;;8.05;2.03;;;17.50;90.60;;;;;;5053017;28;20041;-51
2023/06/27 00:09:22;;;;;;;8.75;2.10;;;17.50;90.70;;;;;;5053366;28;20041;-50
2023/06/27 00:11:49;;;;;;;6.47;1.80;;;17.40;90.80;;;;;;5052919;28;20048;-46
2023/06/27 00:14:18;;;;;;;6.53;1.80;;;17.40;91.10;;;;;;5052809;28;20044;-48
2023/06/27 00:16:46;;;;;;;7.57;2.15;;;17.30;91.10;;;;;;5053129;28;20043;-50
2023/06/27 00:19:12;;;;;;;8.27;2.10;;;17.30;91.10;;;;;;5052610;28;20037;-52
2023/06/27 00:21:39;;;;;;;7.22;1.95;;;17.30;91.10;;;;;;5051616;28;20500;-47
2023/06/27 00:24:06;;;;;;;9.40;1.90;;;17.30;91.00;;;;;;5052813;28;20051;-48
2023/06/27 00:26:33;;;;;;;5.95;1.92;;;17.20;91.00;;;;;;5054132;28;20433;-52
2023/06/27 00:29:00;;;;;;;7.03;1.65;;;17.20;91.10;;;;;;5056850;28;20041;-54
2023/06/27 00:31:26;;;;;;;8.25;2.20;;;17.20;91.10;;;;;;5056538;28;20476;-50
2023/06/27 00:33:53;;;;;;;7.55;2.03;;;17.20;91.20;;;;;;5056290;28;20037;-50
2023/06/27 00:36:20;;;;;;;6.28;1.67;;;17.20;91.30;;;;;;5056641;28;20049;-48
2023/06/27 00:38:47;;;;;;;6.32;1.90;;;17.20;91.40;;;;;;5056400;28;20041;-50
2023/06/27 00:41:14;;;;;;;6.72;2.10;;;17.20;91.50;;;;;;5056516;28;20037;-51
2023/06/27 00:43:41;;;;;;;8.20;2.42;;;17.20;91.40;;;;;;5054737;28;20045;-49
2023/06/27 00:46:08;;;;;;;7.85;2.10;;;17.20;91.50;;;;;;5054850;28;20045;-52
2023/06/27 00:48:35;;;;;;;8.25;1.90;;;17.20;91.60;;;;;;5056198;28;20041;-49
2023/06/27 00:51:03;;;;;;;7.68;1.95;;;17.20;91.40;;;;;;5056106;28;20094;-49
2023/06/27 00:53:30;;;;;;;9.95;1.92;;;17.10;91.70;;;;;;5054681;28;20068;-50
2023/06/27 00:55:58;;;;;;;10.10;2.20;;;17.10;91.60;;;;;;5056219;28;20045;-47
2023/06/27 00:58:25;;;;;;;9.45;2.83;;;17.00;91.80;;;;;;5054812;28;20090;-53
2023/06/27 01:00:52;;;;;;;4.43;1.80;;;17.10;91.80;;;;;;5052405;28;20049;-52
2023/06/27 01:03:20;;;;;;;4.65;1.88;;;17.00;91.90;;;;;;5055819;28;20433;-47
2023/06/27 01:05:48;;;;;;;7.45;2.17;;;17.00;91.90;;;;;;5054849;28;20041;-50
2023/06/27 01:08:14;;;;;;;3.55;1.58;;;17.00;91.90;;;;;;5055980;28;20033;-52
2023/06/27 01:10:41;;;;;;;6.90;1.90;;;17.00;92.00;;;;;;5056075;28;20052;-49
2023/06/27 01:13:08;;;;;;;5.85;1.70;;;17.00;92.10;;;;;;5055711;28;20083;-49
2023/06/27 01:15:35;;;;;;;8.13;1.80;;;16.90;92.20;;;;;;5055618;28;20044;-48
2023/06/27 01:18:02;;;;;;;6.57;1.85;;;16.90;92.50;;;;;;5055462;28;20516;-51
2023/06/27 01:20:29;;;;;;;6.93;1.88;;;16.90;92.30;;;;;;5054343;28;20041;-47
2023/06/27 01:22:56;;;;;;;6.88;2.03;;;16.90;92.30;;;;;;5054444;28;20037;-53
2023/06/27 01:25:22;;;;;;;6.43;1.70;;;16.90;92.50;;;;;;5055206;28;20040;-45
2023/06/27 01:27:49;;;;;;;5.82;1.83;;;17.00;92.40;;;;;;5055622;28;20159;-53
2023/06/27 01:30:17;;;;;;;6.65;2.20;;;17.00;92.50;;;;;;5055286;28;20048;-47
2023/06/27 01:32:44;;;;;;;8.25;2.15;;;16.90;92.50;;;;;;5054987;28;20047;-53
2023/06/27 01:35:11;;;;;;;6.28;1.88;;;17.00;92.60;;;;;;5053869;28;20041;-49
2023/06/27 01:37:38;;;;;;;6.35;2.00;;;17.00;92.80;;;;;;5053037;28;20555;-50
2023/06/27 01:40:07;;;;;;;8.10;1.60;;;17.10;92.40;;;;;;5053613;28;20041;-49
2023/06/27 01:42:34;;;;;;;6.93;1.92;;;17.10;92.60;;;;;;5053653;28;20041;-49
2023/06/27 01:45:01;;;;;;;7.45;1.60;;;17.00;92.50;;;;;;5053774;28;20132;-52
2023/06/27 01:47:27;;;;;;;4.65;1.80;;;17.10;92.80;;;;;;5055115;28;20060;-50
2023/06/27 01:49:54;;;;;;;5.30;1.90;;;17.00;92.60;;;;;;5053962;28;20373;-52
2023/06/27 01:52:21;;;;;;;8.00;1.90;;;17.10;92.70;;;;;;5055232;28;20098;-50
2023/06/27 01:54:48;;;;;;;5.82;1.88;;;17.10;92.70;;;;;;5037309;28;20041;-49
2023/06/27 01:57:15;;;;;;;6.13;2.10;;;17.10;92.80;;;;;;5055013;28;20037;-50
2023/06/27 01:59:42;;;;;;;7.15;2.30;;;17.10;92.80;;;;;;5053626;28;20037;-50
2023/06/27 02:02:09;;;;;;;11.68;1.80;;;17.10;92.90;;;;;;5052956;28;20049;-54
2023/06/27 02:04:35;;;;;;;6.30;2.00;;;17.00;93.00;;;;;;5053726;28;20095;-48
2023/06/27 02:07:02;;;;;;;6.70;1.92;;;17.00;92.90;;;;;;5054912;28;20037;-51
2023/06/27 02:09:29;;;;;;;7.18;2.20;;;17.10;93.00;;;;;;5053566;28;20526;-50
2023/06/27 02:11:58;;;;;;;7.47;2.03;;;17.10;93.00;;;;;;5054825;28;20399;-48
2023/06/27 02:14:24;;;;;;;6.10;2.08;;;17.10;93.10;;;;;;5054303;28;20041;-52
2023/06/27 02:16:51;;;;;;;7.68;1.90;;;17.10;93.00;;;;;;5053732;28;20099;-50
2023/06/27 02:19:18;;;;;;;5.78;1.83;;;17.00;93.10;;;;;;5053236;28;20344;-48
2023/06/27 02:21:45;;;;;;;6.80;1.80;;;17.00;93.10;;;;;;5053061;28;20041;-47
2023/06/27 02:24:11;;;;;;;5.45;1.80;;;17.00;93.10;;;;;;5054437;28;20036;-50
2023/06/27 02:26:38;;;;;;;5.57;1.90;;;17.00;93.30;;;;;;5054202;28;20484;-48
2023/06/27 02:29:05;;;;;;;7.15;2.00;;;17.00;93.20;;;;;;5054425;28;20392;-48
2023/06/27 02:31:32;;;;;;;9.23;2.05;;;17.00;93.30;;;;;;5052976;28;20041;-46
2023/06/27 02:34:00;;;;;;;7.03;1.90;;;16.90;93.40;;;;;;5052996;28;20045;-48
2023/06/27 02:36:27;;;;;;;7.82;1.85;;;16.90;93.30;;;;;;5054064;28;20037;-52
2023/06/27 02:38:55;;;;;;;8.55;2.65;;;16.90;93.50;;;;;;5053116;28;20047;-52
2023/06/27 02:41:23;;;;;;;7.78;2.10;;;16.80;93.50;;;;;;5054037;28;20124;-48
2023/06/27 02:43:49;;;;;;;7.30;2.03;;;16.70;93.60;;;;;;5053738;28;20041;-49
2023/06/27 02:46:16;;;;;;;7.20;2.20;;;16.70;93.80;;;;;;5053979;28;20033;-50
2023/06/27 02:48:43;;;;;;;7.47;2.05;;;16.70;93.80;;;;;;5052529;28;20626;-48
2023/06/27 02:51:10;;;;;;;8.02;1.90;;;16.70;93.80;;;;;;5053033;28;20037;-50
2023/06/27 02:53:37;;;;;;;6.53;2.00;;;16.60;94.00;;;;;;5053988;28;20049;-50
2023/06/27 02:56:04;;;;;;;6.93;2.17;;;16.60;94.10;;;;;;5052697;28;20045;-48
2023/06/27 02:58:33;;;;;;;10.82;2.13;;;16.50;94.20;;;;;;5052544;28;20415;-48
2023/06/27 03:01:03;;;;;;;8.02;1.98;;;16.50;94.40;;;;;;5051946;28;20141;-48
2023/06/27 03:03:33;;;;;;;7.13;1.92;;;16.40;94.50;;;;;;5052530;28;20056;-48
2023/06/27 03:06:08;;;;;;;7.47;2.53;;;16.40;94.60;;;;;;5052821;28;20367;-51
2023/06/27 03:08:39;;;;;;;8.25;2.08;;;16.40;94.60;;;;;;5053906;28;20116;-50
2023/06/27 03:11:06;;;;;;;5.72;2.05;;;16.40;94.50;;;;;;5052769;28;20048;-46
2023/06/27 03:13:34;;;;;;;9.57;2.30;;;16.40;94.40;;;;;;5052387;28;20040;-48
2023/06/27 03:16:01;;;;;;;7.50;2.00;;;16.40;94.70;;;;;;5053982;28;20040;-47
2023/06/27 03:18:29;;;;;;;7.07;2.20;;;16.30;94.70;;;;;;5052380;28;20040;-46
2023/06/27 03:20:57;;;;;;;4.95;1.95;;;16.30;94.80;;;;;;5052001;28;20071;-47
2023/06/27 03:23:24;;;;;;;7.63;1.90;;;16.30;94.90;;;;;;5053602;28;20033;-48
2023/06/27 03:25:52;;;;;;;10.15;2.70;;;16.30;94.90;;;;;;5053473;28;20037;-48
2023/06/27 03:28:20;;;;;;;7.50;2.00;;;16.30;95.00;;;;;;5052115;28;20071;-45
2023/06/27 03:30:51;;;;;;;8.13;2.22;;;16.30;95.00;;;;;;5051997;28;20079;-49
2023/06/27 03:33:19;;;;;;;8.30;2.33;;;16.30;95.00;;;;;;5052082;28;20099;-46
2023/06/27 03:35:48;;;;;;;6.35;2.05;;;16.30;94.90;;;;;;5052003;28;20535;-48
2023/06/27 03:38:16;;;;;;;6.97;2.35;;;16.30;95.10;;;;;;5051681;28;20508;-49
2023/06/27 03:40:43;;;;;;;9.00;2.10;;;16.30;95.10;;;;;;5051823;28;20591;-46
2023/06/27 03:43:10;;;;;;;9.38;2.67;;;16.20;95.20;;;;;;5051640;28;20145;-47
2023/06/27 03:45:38;;;;;;;8.52;1.98;;;16.20;95.30;;;;;;5051848;28;20060;-46
2023/06/27 03:48:06;;;;;;;8.98;2.00;;;16.20;95.30;;;;;;5052388;28;20437;-48
2023/06/27 03:50:33;;;;;;;7.78;2.00;;;16.20;95.40;;;;;;5053365;28;20515;-50
2023/06/27 03:53:00;;;;;;;7.03;2.10;;;16.20;95.50;;;;;;5052447;28;20068;-53
2023/06/27 03:55:26;;;;;;;6.47;2.20;;;16.20;95.50;;;;;;5052733;28;20049;-50
2023/06/27 03:57:54;;;;;;;6.57;2.00;;;16.20;95.50;;;;;;5052558;28;20057;-45
2023/06/27 04:00:21;;;;;;;10.18;2.13;;;16.20;95.60;;;;;;5052416;28;20048;-46
2023/06/27 04:02:50;;;;;;;11.00;2.10;;;16.20;95.60;;;;;;5055813;28;20067;-50
2023/06/27 04:05:17;;;;;;;6.93;2.15;;;16.20;95.60;;;;;;5057688;28;20061;-50
2023/06/27 04:07:44;;;;;;;5.57;2.15;;;16.20;95.70;;;;;;5056000;28;20496;-48
2023/06/27 04:10:11;;;;;;;8.20;3.10;;;16.20;95.70;;;;;;5055774;28;20135;-45
2023/06/27 04:12:38;;;;;;;6.95;2.05;;;16.20;95.80;;;;;;5056864;28;20037;-46
2023/06/27 04:15:04;;;;;;;11.00;2.70;;;16.10;95.80;;;;;;5057014;28;20438;-46
2023/06/27 04:17:32;;;;;;;9.13;2.10;;;16.20;95.90;;;;;;5055700;28;20087;-48
2023/06/27 04:19:59;;;;;;;6.75;2.15;;;16.20;95.80;;;;;;5055790;28;20041;-49
2023/06/27 04:22:27;;;;;;;7.28;1.88;;;16.30;95.70;;;;;;5039596;28;20055;-51
2023/06/27 04:24:53;;;;;;;8.27;2.22;;;16.30;95.70;;;;;;5055666;28;20151;-46
2023/06/27 04:27:21;;;;;;;6.40;1.92;;;16.40;95.70;;;;;;5055576;28;20550;-52
2023/06/27 04:29:48;;;;;;;7.75;2.42;;;16.40;95.70;;;;;;5056958;28;20123;-51
2023/06/27 04:32:15;;;;;;;7.60;2.20;;;16.40;95.80;;;;;;5056682;28;20052;-49
2023/06/27 04:34:42;;;;;;;10.30;2.25;;;16.40;95.70;;;;;;5056842;28;20056;-50
2023/06/27 04:37:08;;;;;;;9.82;2.50;;;16.50;95.70;;;;;;5056536;28;20048;-46
2023/06/27 04:39:35;;;;;;;8.07;2.45;;;16.50;95.70;;;;;;5056602;28;20099;-48
2023/06/27 04:42:02;;;;;;;10.23;2.25;;;16.50;96.00;;;;;;5056347;28;20047;-48
2023/06/27 04:44:29;;;;;;;7.38;2.45;;;16.50;95.90;;;;;;5056509;28;20044;-48
2023/06/27 04:46:55;;;;;;;10.32;2.83;;;16.50;95.80;;;;;;5056523;28;20033;-52
2023/06/27 04:49:22;;;;;;;9.98;2.40;;;16.50;95.80;;;;;;5056384;28;20040;-46
2023/06/27 04:51:49;;;;;;;9.43;2.40;;;16.50;95.80;;;;;;5056495;28;20119;-47
2023/06/27 04:54:16;;;;;;;7.35;2.10;;;16.60;96.00;;;;;;5056028;28;20045;-47
2023/06/27 04:56:43;;;;;;;8.77;2.30;;;16.60;95.90;;;;;;5056386;28;20421;-45
2023/06/27 04:59:11;;;;;;;10.60;2.42;;;16.60;95.90;;;;;;5056374;28;20033;-46
2023/06/27 05:01:37;;;;;;;6.70;2.20;;;16.60;95.90;;;;;;5055770;28;20057;-45
2023/06/27 05:04:04;;;;;;;9.27;2.17;;;16.60;95.90;;;;;;5056146;28;20041;-45
2023/06/27 05:06:31;;;;;;;5.60;1.85;;;16.60;96.10;;;;;;5054596;28;20571;-45
2023/06/27 05:08:58;;;;;;;7.03;2.47;;;16.60;96.10;;;;;;5055803;28;20041;-48
2023/06/27 05:11:25;;;;;;;9.70;2.67;;;16.60;96.20;;;;;;5056117;28;20037;-49
2023/06/27 05:13:53;;;;;;;8.38;2.20;;;16.60;96.20;;;;;;5054526;28;20086;-48
2023/06/27 05:16:19;;;;;;;9.90;2.63;;;16.60;96.20;;;;;;5055649;28;20040;-50
2023/06/27 05:18:46;;;;;;;10.93;2.95;;;16.60;96.20;;;;;;5057601;28;20045;-48
2023/06/27 05:21:13;;;;;;;10.02;2.10;;;16.70;96.20;;;;;;5056567;28;20043;-52
2023/06/27 05:23:40;;;;;;;8.90;2.20;;;16.70;96.20;;;;;;5055782;28;20048;-50
2023/06/27 05:26:07;;;;;;;10.30;2.33;;;16.70;96.20;;;;;;5055527;28;20091;-52
2023/06/27 05:28:33;;;;;;;6.13;2.22;;;16.80;96.10;;;;;;5055673;28;20464;-47
2023/06/27 05:31:00;;;;;;;9.88;2.72;;;16.90;96.30;;;;;;5055647;28;20060;-52
2023/06/27 05:33:27;;;;;;;8.77;2.13;;;16.90;96.10;;;;;;5055028;28;20061;-47
2023/06/27 05:35:54;;;;;;;8.60;2.28;;;17.10;96.00;;;;;;5055540;28;20095;-50
2023/06/27 05:38:21;;;;;;;8.93;2.17;;;17.10;96.00;;;;;;5054112;28;20037;-50
2023/06/27 05:40:47;;;;;;;7.35;2.20;;;17.20;95.90;;;;;;5055676;28;20538;-51
2023/06/27 05:43:14;;;;;;;9.05;2.20;;;17.40;95.70;;;;;;5055203;28;20033;-53
2023/06/27 05:45:41;;;;;;;7.35;2.15;;;17.50;95.60;;;;;;5055476;28;20543;-52
2023/06/27 05:48:08;;;;;;;12.48;2.40;;;17.70;95.50;;;;;;5055201;28;20041;-48
2023/06/27 05:50:35;;;;;;;8.32;2.45;;;17.80;95.40;;;;;;5055212;28;20124;-49
2023/06/27 05:53:02;;;;;;;9.55;2.58;;;18.00;95.20;;;;;;5055277;28;20049;-51
2023/06/27 05:55:29;;;;;;;11.93;2.58;;;18.10;95.00;;;;;;5055074;28;20045;-50
2023/06/27 05:57:55;;;;;;;14.13;3.03;;;18.30;95.10;;;;;;5054788;28;20091;-52
2023/06/27 06:00:22;;;;;;;7.88;2.35;;;18.50;94.90;;;;;;5054817;28;20033;-50
2023/06/27 06:02:49;;;;;;;6.80;2.50;;;18.70;94.40;;;;;;5054533;28;20167;-50
2023/06/27 06:05:17;;;;;;;12.80;2.53;;;18.80;94.30;;;;;;5054482;28;20045;-48
2023/06/27 06:07:44;;;;;;;9.30;2.35;;;18.80;94.10;;;;;;5054590;28;20203;-49
2023/06/27 06:10:11;;;;;;;10.82;2.42;;;18.80;94.10;;;;;;5054831;28;20392;-49
2023/06/27 06:12:37;;;;;;;11.65;2.38;;;18.70;94.30;;;;;;5054752;28;20040;-53
2023/06/27 06:15:04;;;;;;;9.55;2.58;;;18.70;94.10;;;;;;5054689;28;20052;-49
2023/06/27 06:17:31;;;;;;;10.93;2.58;;;18.60;94.30;;;;;;5054730;28;20045;-49
2023/06/27 06:19:58;;;;;;;9.75;2.45;;;18.60;94.40;;;;;;5054817;28;20099;-49
2023/06/27 06:22:25;;;;;;;9.63;2.42;;;18.60;94.40;;;;;;5054755;28;20110;-54
2023/06/27 06:24:51;;;;;;;14.05;2.75;;;18.60;94.70;;;;;;5054689;28;20033;-51
2023/06/27 06:27:18;;;;;;;10.18;2.47;;;18.70;94.50;;;;;;5054529;28;20037;-51
2023/06/27 06:29:45;;;;;;;9.27;2.38;;;18.80;94.50;;;;;;5054132;28;20043;-51
2023/06/27 06:32:12;;;;;;;10.55;3.17;;;18.80;94.30;;;;;;5052987;28;20041;-54
2023/06/27 06:34:39;;;;;;;10.80;2.38;;;18.80;94.40;;;;;;5053683;28;20048;-51
2023/06/27 06:37:07;;;;;;;10.93;2.33;;;18.80;94.40;;;;;;5053893;28;20037;-51
2023/06/27 06:39:35;;;;;;;12.77;2.20;;;18.90;94.30;;;;;;5054495;28;20487;-52
2023/06/27 06:42:03;;;;;;;9.20;2.38;;;18.90;94.00;;;;;;5052780;28;20423;-48
2023/06/27 06:44:29;;;;;;;9.95;2.30;;;18.80;94.10;;;;;;5054150;28;20040;-47
2023/06/27 06:46:58;;;;;;;6.80;2.20;;;18.90;94.10;;;;;;5054310;28;20029;-49
2023/06/27 06:49:25;;;;;;;11.60;3.08;;;18.90;94.00;;;;;;5054122;28;20047;-51
2023/06/27 06:51:52;;;;;;;9.30;2.25;;;18.90;94.00;;;;;;5054230;28;20075;-51
2023/06/27 06:54:18;;;;;;;9.95;2.45;;;18.90;94.10;;;;;;5053909;28;20063;-49
2023/06/27 06:56:45;;;;;;;8.65;2.20;;;19.00;94.30;;;;;;5054216;28;20044;-49
2023/06/27 06:59:12;;;;;;;11.90;2.85;;;19.00;94.10;;;;;;5053924;28;20431;-53
2023/06/27 07:01:39;;;;;;;13.80;2.45;;;19.00;93.80;;;;;;5053803;28;20491;-47
2023/06/27 07:04:06;;;;;;;10.75;2.80;;;19.00;93.80;;;;;;5053622;28;20053;-51
2023/06/27 07:06:32;;;;;;;7.57;2.22;;;19.00;94.00;;;;;;5053970;28;20047;-49
2023/06/27 07:08:59;;;;;;;8.90;2.50;;;19.00;94.10;;;;;;5054029;28;20071;-50
2023/06/27 07:11:26;;;;;;;13.55;2.80;;;19.10;94.10;;;;;;5053811;28;20119;-50
2023/06/27 07:13:53;;;;;;;30.40;3.30;;;19.20;94.00;;;;;;5053461;28;20468;-50
2023/06/27 07:16:19;;;;;;;11.27;3.13;;;19.30;93.80;;;;;;5052918;28;20045;-51
2023/06/27 07:18:46;;;;;;;7.78;2.40;;;19.30;93.60;;;;;;5052821;28;20083;-50
2023/06/27 07:21:13;;;;;;;8.07;2.28;;;19.30;93.50;;;;;;5053134;28;20127;-47
2023/06/27 07:23:40;;;;;;;11.55;2.88;;;19.50;93.40;;;;;;5053525;28;20055;-47
2023/06/27 07:26:07;;;;;;;11.07;2.60;;;19.50;93.20;;;;;;5046957;28;20103;-52
2023/06/27 07:28:33;;;;;;;9.20;2.80;;;19.60;93.10;;;;;;5052003;28;20490;-46
2023/06/27 07:31:00;;;;;;;8.82;2.38;;;19.50;92.80;;;;;;5053369;28;20045;-50
2023/06/27 07:33:27;;;;;;;11.00;2.53;;;19.40;93.00;;;;;;5032386;28;20049;-46
2023/06/27 07:35:54;;;;;;;10.88;2.60;;;19.40;93.10;;;;;;5053585;28;20037;-48
2023/06/27 07:38:21;;;;;;;7.82;2.67;;;19.50;93.10;;;;;;5053035;28;20094;-48
2023/06/27 07:40:48;;;;;;;13.57;2.63;;;19.50;93.00;;;;;;5055883;28;20041;-51
2023/06/27 07:43:14;;;;;;;11.20;3.08;;;19.60;93.10;;;;;;5057027;28;20080;-49
2023/06/27 07:45:42;;;;;;;7.63;2.40;;;19.60;93.10;;;;;;5056632;28;20507;-47
2023/06/27 07:48:09;;;;;;;11.18;2.88;;;19.70;92.80;;;;;;5056828;28;20044;-47
2023/06/27 07:50:36;;;;;;;12.20;2.40;;;19.70;92.80;;;;;;5056471;28;20148;-51
2023/06/27 07:53:03;;;;;;;8.23;2.58;;;19.90;92.80;;;;;;5056674;28;20389;-47
2023/06/27 07:55:30;;;;;;;10.80;2.92;;;20.00;92.50;;;;;;5056611;28;20098;-50
2023/06/27 07:57:56;;;;;;;9.15;2.38;;;20.10;92.40;;;;;;5056381;28;20127;-54
2023/06/27 08:00:23;;;;;;;13.00;2.75;;;20.10;91.90;;;;;;5056252;28;20135;-47
2023/06/27 08:02:50;;;;;;;10.93;2.65;;;20.00;92.00;;;;;;5056095;28;20502;-47
2023/06/27 08:05:18;;;;;;;11.95;2.78;;;20.00;92.10;;;;;;5056349;28;20044;-46
2023/06/27 08:07:45;;;;;;;12.75;2.72;;;20.10;92.00;;;;;;5056506;28;20400;-49
2023/06/27 08:10:12;;;;;;;11.38;2.72;;;20.00;92.10;;;;;;5054837;28;20434;-46
2023/06/27 08:12:38;;;;;;;12.27;2.90;;;20.10;92.40;;;;;;5056148;28;20037;-47
2023/06/27 08:15:05;;;;;;;10.93;2.95;;;20.10;91.90;;;;;;5056122;28;20127;-48
2023/06/27 08:17:32;;;;;;;8.85;2.38;;;20.20;91.60;;;;;;5056117;28;20103;-50
2023/06/27 08:19:59;;;;;;;10.60;2.58;;;20.40;90.90;;;;;;5055462;28;20051;-47
2023/06/27 08:22:26;;;;;;;9.02;2.30;;;20.60;90.60;;;;;;5054924;28;20553;-47
2023/06/27 08:24:53;;;;;;;9.23;2.00;;;20.80;90.50;;;;;;5056194;28;20123;-47
2023/06/27 08:27:20;;;;;;;9.68;2.53;;;21.00;90.30;;;;;;5055845;28;20484;-47
2023/06/27 08:29:47;;;;;;;9.88;2.47;;;21.00;89.50;;;;;;5055959;28;20044;-52
2023/06/27 08:32:13;;;;;;;9.98;2.38;;;21.00;90.00;;;;;;5055948;28;20049;-48
2023/06/27 08:34:41;;;;;;;7.43;2.45;;;21.00;89.70;;;;;;5054621;28;20429;-51
2023/06/27 08:37:08;;;;;;;8.43;2.50;;;21.00;90.00;;;;;;5055726;28;20127;-52
2023/06/27 08:39:36;;;;;;;10.65;2.95;;;21.00;90.30;;;;;;5054384;28;20045;-49
2023/06/27 08:42:03;;;;;;;10.98;2.10;;;21.00;89.70;;;;;;5055579;28;20041;-48
2023/06/27 08:44:30;;;;;;;9.35;2.55;;;21.20;88.90;;;;;;5055716;28;20044;-46
2023/06/27 08:46:57;;;;;;;8.32;2.78;;;21.20;88.00;;;;;;5054900;28;20423;-48
2023/06/27 08:49:24;;;;;;;11.77;2.70;;;21.20;88.10;;;;;;5053043;28;20040;-47
2023/06/27 08:51:51;;;;;;;8.30;2.72;;;21.20;88.60;;;;;;5055488;28;20041;-46
2023/06/27 08:54:17;;;;;;;9.60;2.50;;;21.30;88.10;;;;;;5055349;28;20041;-47
2023/06/27 08:56:44;;;;;;;16.45;3.03;;;21.30;88.00;;;;;;5055112;28;20040;-46
2023/06/27 08:59:11;;;;;;;6.43;2.17;;;21.20;87.80;;;;;;5055440;28;20154;-47
2023/06/27 09:01:38;;;;;;;13.75;3.00;;;21.30;89.20;;;;;;5055146;28;20045;-46
2023/06/27 09:04:05;;;;;;;9.73;2.63;;;21.50;89.20;;;;;;5055142;28;20045;-45
2023/06/27 09:06:32;;;;;;;10.43;2.47;;;21.50;88.50;;;;;;5055187;28;20037;-45
2023/06/27 09:08:59;;;;;;;9.27;2.90;;;21.60;88.20;;;;;;5054948;28;20087;-46
2023/06/27 09:11:25;;;;;;;7.53;2.00;;;21.80;87.40;;;;;;5055044;28;20067;-47
2023/06/27 09:13:52;;;;;;;11.40;2.63;;;21.90;86.60;;;;;;5055273;28;20063;-46
2023/06/27 09:16:19;;;;;;;10.10;2.83;;;21.90;87.80;;;;;;5055240;28;20047;-45
2023/06/27 09:18:47;;;;;;;15.55;3.28;;;22.00;86.70;;;;;;5054418;28;20395;-46
2023/06/27 09:21:14;;;;;;;8.27;2.45;;;22.00;86.40;;;;;;5055182;28;20123;-45
2023/06/27 09:23:41;;;;;;;11.98;2.53;;;22.00;85.50;;;;;;5054738;28;20037;-48
2023/06/27 09:26:08;;;;;;;15.07;2.90;;;22.00;86.00;;;;;;5054919;28;20036;-48
2023/06/27 09:28:34;;;;;;;9.13;2.58;;;21.90;86.00;;;;;;5054615;28;20041;-45
2023/06/27 09:31:01;;;;;;;11.18;2.58;;;22.00;86.20;;;;;;5054812;28;20083;-47
2023/06/27 09:33:28;;;;;;;7.82;2.47;;;22.20;87.10;;;;;;5054683;28;20395;-47
2023/06/27 09:35:55;;;;;;;12.07;3.30;;;22.40;85.20;;;;;;5048237;28;20491;-50
2023/06/27 09:38:28;;;;;;;11.65;2.72;;;22.50;84.90;;;;;;5045982;28;20040;-49
2023/06/27 09:40:57;;;;;;;11.85;2.78;;;22.50;84.90;;;;;;5054397;28;20040;-53
2023/06/27 09:43:24;;;;;;;6.72;2.45;;;22.40;85.00;;;;;;5054359;28;20072;-46
2023/06/27 09:45:51;;;;;;;11.85;3.03;;;22.50;84.60;;;;;;5054301;28;20124;-51
2023/06/27 09:48:18;;;;;;;7.00;2.55;;;22.60;85.40;;;;;;5054276;28;20116;-48
2023/06/27 09:50:45;;;;;;;9.73;2.38;;;22.80;85.00;;;;;;5054197;28;20033;-46
2023/06/27 09:53:12;;;;;;;7.82;2.85;;;23.00;84.60;;;;;;5054465;28;20479;-46
2023/06/27 09:55:39;;;;;;;10.38;2.67;;;22.90;83.80;;;;;;5053276;28;20087;-49
2023/06/27 09:58:07;;;;;;;8.50;2.60;;;22.90;84.50;;;;;;5052929;28;20471;-47
2023/06/27 10:00:34;;;;;;;11.40;3.00;;;22.90;85.00;;;;;;5053672;28;20055;-46
2023/06/27 10:03:01;;;;;;;8.45;2.30;;;23.00;84.80;;;;;;5054297;28;20049;-45
2023/06/27 10:05:29;;;;;;;7.57;2.25;;;23.00;84.60;;;;;;5054079;28;20040;-47
2023/06/27 10:08:09;;;;;;;9.32;2.92;;;23.00;84.60;;;;;;5054197;28;20048;-47
2023/06/27 10:10:35;;;;;;;9.27;2.70;;;22.80;84.70;;;;;;5053934;28;20048;-51
2023/06/27 10:13:02;;;;;;;9.48;2.80;;;22.80;84.70;;;;;;5053893;28;20523;-46
2023/06/27 10:15:29;;;;;;;11.13;2.80;;;22.80;84.00;;;;;;5053907;28;20504;-47
2023/06/27 10:17:56;;;;;;;11.73;2.85;;;23.10;84.80;;;;;;5035964;28;20045;-50
2023/06/27 10:20:23;;;;;;;11.35;2.65;;;23.10;84.40;;;;;;5053425;28;20052;-47
2023/06/27 10:22:50;;;;;;;8.68;2.83;;;23.30;83.70;;;;;;5053586;28;20120;-48
2023/06/27 10:25:17;;;;;;;9.73;2.75;;;23.50;84.40;;;;;;5053737;28;20045;-52
2023/06/27 10:27:44;;;;;;;7.90;2.53;;;23.70;84.10;;;;;;5053629;28;20033;-52
2023/06/27 10:30:11;;;;;;;8.32;2.60;;;23.60;82.80;;;;;;5053430;28;20037;-51
2023/06/27 10:32:39;;;;;;;8.00;2.58;;;23.50;82.70;;;;;;5053317;28;20084;-51
2023/06/27 10:35:06;;;;;;;9.73;2.47;;;23.40;82.30;;;;;;5053467;28;20045;-49
2023/06/27 10:37:33;;;;;;;10.13;2.47;;;23.50;83.50;;;;;;5053410;28;20442;-51
2023/06/27 10:40:08;;;;;;;9.85;2.80;;;23.80;83.00;;;;;;5053502;28;20398;-47
2023/06/27 10:42:35;;;;;;;10.13;2.60;;;23.90;82.50;;;;;;5053402;28;20388;-52
2023/06/27 10:45:02;;;;;;;12.60;2.60;;;24.00;82.10;;;;;;5053483;28;20531;-47
2023/06/27 10:47:29;;;;;;;7.82;2.35;;;24.00;81.30;;;;;;5053383;28;20079;-49
2023/06/27 10:49:57;;;;;;;8.35;2.50;;;24.00;81.60;;;;;;5053047;28;20460;-48
2023/06/27 10:52:24;;;;;;;7.90;2.15;;;23.90;81.40;;;;;;5053006;28;20045;-46
2023/06/27 10:54:51;;;;;;;8.00;2.63;;;24.00;82.00;;;;;;5053366;28;20041;-48
2023/06/27 10:57:17;;;;;;;6.45;2.25;;;24.10;80.80;;;;;;5053304;28;20045;-47
2023/06/27 10:59:45;;;;;;;10.68;2.50;;;24.10;80.40;;;;;;5052422;28;20158;-47
2023/06/27 11:02:12;;;;;;;9.63;2.88;;;23.90;80.50;;;;;;5052655;28;20443;-49
2023/06/27 11:04:40;;;;;;;10.75;2.20;;;23.80;81.80;;;;;;5052978;28;20037;-48
2023/06/27 11:07:12;;;;;;;6.70;2.13;;;23.90;82.20;;;;;;5048201;28;20045;-46
2023/06/27 11:09:39;;;;;;;9.00;2.03;;;24.10;81.20;;;;;;5052810;28;20037;-46
2023/06/27 11:12:05;;;;;;;6.75;2.20;;;24.20;80.80;;;;;;5051993;28;20045;-50
2023/06/27 11:14:33;;;;;;;8.40;2.00;;;24.40;80.60;;;;;;5053130;28;20122;-51
2023/06/27 11:17:00;;;;;;;7.43;2.00;;;24.60;80.00;;;;;;5053039;28;20045;-49
2023/06/27 11:19:27;;;;;;;8.80;2.00;;;24.60;79.80;;;;;;5051901;28;20041;-51
2023/06/27 11:21:53;;;;;;;6.07;2.00;;;24.70;80.20;;;;;;5052309;28;20033;-49
2023/06/27 11:24:20;;;;;;;6.47;2.10;;;24.90;80.30;;;;;;5052662;28;20107;-49
2023/06/27 11:26:47;;;;;;;7.20;2.08;;;24.80;80.20;;;;;;5053431;28;20052;-48
2023/06/27 11:29:14;;;;;;;7.90;1.80;;;24.80;79.60;;;;;;5053299;28;20487;-46
2023/06/27 11:31:41;;;;;;;6.20;2.10;;;24.90;79.80;;;;;;5036290;28;20052;-49
2023/06/27 11:34:08;;;;;;;6.15;2.08;;;24.90;78.50;;;;;;5047594;28;20099;-49
2023/06/27 11:36:34;;;;;;;5.80;1.77;;;25.00;78.50;;;;;;5052181;28;20037;-47
2023/06/27 11:39:01;;;;;;;8.40;1.80;;;25.10;78.60;;;;;;5053225;28;20103;-50
2023/06/27 11:41:28;;;;;;;6.95;2.10;;;25.20;78.10;;;;;;5053093;28;20041;-48
2023/06/27 11:43:55;;;;;;;5.07;1.90;;;25.20;77.50;;;;;;5050462;28;20454;-50
2023/06/27 11:46:21;;;;;;;4.57;2.00;;;25.20;77.70;;;;;;5052159;28;20394;-52
2023/06/27 11:48:48;;;;;;;6.45;1.60;;;25.20;78.60;;;;;;5052452;28;20140;-51
2023/06/27 11:51:15;;;;;;;8.82;2.20;;;25.20;77.50;;;;;;5052403;28;20037;-51
2023/06/27 11:53:42;;;;;;;4.05;1.33;;;25.10;76.40;;;;;;5052192;28;20037;-54
2023/06/27 11:56:08;;;;;;;7.30;1.85;;;24.90;77.40;;;;;;5052470;28;20037;-47
2023/06/27 11:58:38;;;;;;;7.20;1.92;;;25.00;77.70;;;;;;5053274;28;20456;-50
2023/06/27 12:01:05;;;;;;;7.47;2.30;;;25.20;77.50;;;;;;5052210;28;20053;-47
2023/06/27 12:03:33;;;;;;;10.35;2.50;;;25.20;76.80;;;;;;5052447;28;20072;-52
2023/06/27 12:06:00;;;;;;;5.75;1.85;;;25.10;77.10;;;;;;5052784;28;20045;-50
2023/06/27 12:08:27;;;;;;;6.03;2.00;;;25.10;76.90;;;;;;5052847;28;20065;-49
2023/06/27 12:10:56;;;;;;;8.43;1.95;;;25.10;77.60;;;;;;5052200;28;20464;-51
2023/06/27 12:13:23;;;;;;;7.82;2.08;;;25.20;77.70;;;;;;5052665;28;20091;-51
2023/06/27 12:15:50;;;;;;;7.28;2.05;;;25.20;76.90;;;;;;5052205;28;20041;-50
2023/06/27 12:18:17;;;;;;;5.03;1.60;;;25.40;76.80;;;;;;5052858;28;20041;-47
2023/06/27 12:20:43;;;;;;;4.57;1.70;;;25.40;76.30;;;;;;5046156;28;20041;-49
2023/06/27 12:23:10;;;;;;;5.22;1.70;;;25.20;76.60;;;;;;5054865;28;20044;-49
2023/06/27 12:25:37;;;;;;;4.50;1.70;;;25.20;77.40;;;;;;5056068;28;20383;-52
2023/06/27 12:28:04;;;;;;;6.65;1.60;;;25.40;76.80;;;;;;5056493;28;20043;-55
2023/06/27 12:30:30;;;;;;;5.70;1.65;;;25.50;77.40;;;;;;5056398;28;20427;-50
2023/06/27 12:32:57;;;;;;;7.68;1.95;;;25.60;77.40;;;;;;5054630;28;20060;-49
2023/06/27 12:35:25;;;;;;;5.13;1.85;;;25.90;77.70;;;;;;5053739;28;20369;-48
2023/06/27 12:37:52;;;;;;;8.57;2.05;;;25.80;75.90;;;;;;5054964;28;20033;-50
2023/06/27 12:40:22;;;;;;;6.13;1.63;;;25.60;76.40;;;;;;5056140;28;20051;-47
2023/06/27 12:42:49;;;;;;;3.38;1.58;;;25.60;76.20;;;;;;5053960;28;20045;-50
2023/06/27 12:45:16;;;;;;;5.60;2.17;;;25.70;76.60;;;;;;5055840;28;20087;-52